createdAt,value
2022-08-07T00:00:03.026Z,20.26
2022-08-07T00:02:35.585Z,21.34
2022-08-07T00:03:11.265Z,21.24
2022-08-07T00:04:24.694Z,20.83
2022-08-07T00:05:37.437Z,21.18
2022-08-07T00:06:51.601Z,21.05
2022-08-07T00:08:02.518Z,21.04
2022-08-07T00:09:17.054Z,21.13
2022-08-07T00:10:33.688Z,20.80
2022-08-07T00:11:47.928Z,20.84
2022-08-07T00:13:23.480Z,20.97
2022-08-07T00:14:34.605Z,21.88
2022-08-07T00:15:50.935Z,22.10
2022-08-07T00:17:01.949Z,22.24
2022-08-07T00:18:19.676Z,22.33
2022-08-07T00:20:00.209Z,21.73
2022-08-07T00:21:07.896Z,21.71
2022-08-07T00:22:24.802Z,21.83
2022-08-07T00:23:46.768Z,21.96
2022-08-07T00:24:56.800Z,22.13
2022-08-07T00:26:13.047Z,22.55
2022-08-07T00:27:28.800Z,22.97
2022-08-07T00:28:58.311Z,23.14
2022-08-07T00:30:10.179Z,23.23
2022-08-07T00:31:42.138Z,23.45
2022-08-07T00:32:51.972Z,24.04
2022-08-07T00:34:01.014Z,24.03
2022-08-07T00:35:11.561Z,24.09
2022-08-07T00:36:25.285Z,24.21
2022-08-07T00:37:48.208Z,24.02
2022-08-07T00:38:57.106Z,23.96
2022-08-07T00:40:10.861Z,23.88
2022-08-07T00:41:29.024Z,23.73
2022-08-07T00:42:41.019Z,23.84
2022-08-07T00:44:01.402Z,23.79
2022-08-07T00:45:16.215Z,23.77
2022-08-07T00:46:24.746Z,23.59
2022-08-07T00:48:07.730Z,23.40
2022-08-07T00:49:04.778Z,22.35
2022-08-07T00:50:19.654Z,22.27
2022-08-07T00:51:57.503Z,22.31
2022-08-07T00:53:09.418Z,21.45
2022-08-07T00:54:20.423Z,21.12
2022-08-07T00:56:00.376Z,21.14
2022-08-07T00:57:03.479Z,21.38
2022-08-07T00:58:12.403Z,21.14
2022-08-07T00:59:35.458Z,20.68
2022-08-07T01:00:53.341Z,20.73
2022-08-07T01:02:06.344Z,20.71
2022-08-07T01:03:55.332Z,20.44
2022-08-07T01:04:52.847Z,20.01
2022-08-07T01:06:05.052Z,19.48
2022-08-07T01:07:15.570Z,19.47
2022-08-07T01:08:26.424Z,19.44
2022-08-07T01:10:06.349Z,19.56
2022-08-07T01:12:04.922Z,19.32
2022-08-07T01:12:53.285Z,19.40
2022-08-07T01:14:04.851Z,19.44
2022-08-07T01:15:17.706Z,19.51
2022-08-07T01:16:30.318Z,19.41
2022-08-07T01:17:41.973Z,19.37
2022-08-07T01:18:51.145Z,19.28
2022-08-07T01:20:09.384Z,19.46
2022-08-07T01:21:28.505Z,19.18
2022-08-07T01:22:46.786Z,19.14
2022-08-07T01:24:12.555Z,19.08
2022-08-07T01:25:53.543Z,18.86
2022-08-07T01:26:51.867Z,18.97
2022-08-07T01:28:03.478Z,18.81
2022-08-07T01:29:13.551Z,18.76
2022-08-07T01:30:27.222Z,18.70
2022-08-07T01:31:42.506Z,18.83
2022-08-07T01:32:55.281Z,18.76
2022-08-07T01:34:04.440Z,18.79
2022-08-07T01:35:24.467Z,18.92
2022-08-07T01:36:36.403Z,19.04
2022-08-07T01:37:56.718Z,19.07
2022-08-07T01:39:09.522Z,19.26
2022-08-07T01:40:24.459Z,19.18
2022-08-07T01:41:37.855Z,19.23
2022-08-07T01:42:58.584Z,19.27
2022-08-07T01:44:11.835Z,19.35
2022-08-07T01:45:36.333Z,19.49
2022-08-07T01:46:55.715Z,19.62
2022-08-07T01:48:20.614Z,19.67
2022-08-07T01:49:31.967Z,19.79
2022-08-07T01:50:43.294Z,20.02
2022-08-07T01:52:03.984Z,20.18
2022-08-07T01:53:21.622Z,20.28
2022-08-07T01:54:48.774Z,20.49
2022-08-07T01:56:03.571Z,20.61
2022-08-07T01:57:24.272Z,20.66
2022-08-07T01:58:37.450Z,20.62
2022-08-07T02:00:02.305Z,20.78
2022-08-07T02:01:59.802Z,20.93
2022-08-07T02:03:15.952Z,21.15
2022-08-07T02:04:55.830Z,21.25
2022-08-07T02:06:31.635Z,21.44
2022-08-07T02:07:52.509Z,21.82
2022-08-07T02:09:08.498Z,22.06
2022-08-07T02:10:21.118Z,22.37
2022-08-07T02:12:04.306Z,22.43
2022-08-07T02:13:01.960Z,22.46
2022-08-07T02:14:35.870Z,22.78
2022-08-07T02:15:46.173Z,22.98
2022-08-07T02:16:54.323Z,23.42
2022-08-07T02:18:03.741Z,23.60
2022-08-07T02:20:05.311Z,23.66
2022-08-07T02:20:48.630Z,24.18
2022-08-07T02:22:03.981Z,24.33
2022-08-07T02:23:23.999Z,24.51
2022-08-07T02:24:32.590Z,24.84
2022-08-07T02:26:31.341Z,25.05
2022-08-07T02:27:18.331Z,24.84
2022-08-07T02:28:30.435Z,25.20
2022-08-07T02:29:54.118Z,25.42
2022-08-07T02:31:28.492Z,25.47
2022-08-07T02:33:03.842Z,25.97
2022-08-07T02:34:11.448Z,26.45
2022-08-07T02:36:28.481Z,26.83
2022-08-07T02:37:01.285Z,27.09
2022-08-07T02:38:11.453Z,27.34
2022-08-07T02:39:43.098Z,27.68
2022-08-07T02:40:58.061Z,27.98
2022-08-07T02:42:10.004Z,28.18
2022-08-07T02:43:25.147Z,28.37
2022-08-07T02:44:37.997Z,28.66
2022-08-07T02:46:00.491Z,28.58
2022-08-07T02:47:19.474Z,28.58
2022-08-07T02:48:54.797Z,28.89
2022-08-07T02:50:03.934Z,29.02
2022-08-07T02:51:42.813Z,29.11
2022-08-07T02:53:06.461Z,29.30
2022-08-07T02:54:17.883Z,29.55
2022-08-07T02:56:04.076Z,29.37
2022-08-07T02:57:02.414Z,29.55
2022-08-07T02:58:17.525Z,29.62
2022-08-07T02:59:32.290Z,29.74
2022-08-07T03:00:47.079Z,29.64
2022-08-07T03:02:05.311Z,29.83
2022-08-07T03:03:13.794Z,29.90
2022-08-07T03:04:33.495Z,30.03
2022-08-07T03:05:44.069Z,30.11
2022-08-07T03:06:54.245Z,30.11
2022-08-07T03:08:07.283Z,30.07
2022-08-07T03:09:43.654Z,30.15
2022-08-07T03:10:53.601Z,29.94
2022-08-07T03:12:22.529Z,29.95
2022-08-07T03:13:49.478Z,29.82
2022-08-07T03:15:02.565Z,29.87
2022-08-07T03:16:22.915Z,29.97
2022-08-07T03:17:52.908Z,29.97
2022-08-07T03:19:05.717Z,30.27
2022-08-07T03:20:17.299Z,30.29
2022-08-07T03:21:26.166Z,30.19
2022-08-07T03:22:37.428Z,30.14
2022-08-07T03:24:20.497Z,30.34
2022-08-07T03:25:16.212Z,30.43
2022-08-07T03:26:35.269Z,30.65
2022-08-07T03:27:59.127Z,30.59
2022-08-07T03:29:14.782Z,30.62
2022-08-07T03:30:26.750Z,30.44
2022-08-07T03:31:43.530Z,30.58
2022-08-07T03:32:58.616Z,30.81
2022-08-07T03:34:18.542Z,30.54
2022-08-07T03:35:43.493Z,30.70
2022-08-07T03:36:59.426Z,30.89
2022-08-07T03:38:13.333Z,30.99
2022-08-07T03:39:45.961Z,30.88
2022-08-07T03:40:57.069Z,31.21
2022-08-07T03:42:07.492Z,31.34
2022-08-07T03:43:17.097Z,31.34
2022-08-07T03:44:34.226Z,31.34
2022-08-07T03:45:47.713Z,31.22
2022-08-07T03:47:13.821Z,31.26
2022-08-07T03:48:29.670Z,31.49
2022-08-07T03:49:38.288Z,31.58
2022-08-07T03:50:55.713Z,31.47
2022-08-07T03:52:26.082Z,31.74
2022-08-07T03:54:33.034Z,31.61
2022-08-07T03:55:12.420Z,31.83
2022-08-07T03:56:33.252Z,31.95
2022-08-07T03:58:35.388Z,31.92
2022-08-07T03:59:21.350Z,32.02
2022-08-07T04:00:30.410Z,31.95
2022-08-07T04:01:39.601Z,31.92
2022-08-07T04:02:56.745Z,31.84
2022-08-07T04:04:13.645Z,31.93
2022-08-07T04:05:39.363Z,32.04
2022-08-07T04:06:56.352Z,32.05
2022-08-07T04:08:16.278Z,31.98
2022-08-07T04:09:44.485Z,31.83
2022-08-07T04:12:23.627Z,31.79
2022-08-07T04:12:28.957Z,31.84
2022-08-07T04:14:09.403Z,31.77
2022-08-07T04:15:11.174Z,31.78
2022-08-07T04:16:31.058Z,31.97
2022-08-07T04:18:56.670Z,32.01
2022-08-07T04:19:17.773Z,32.01
2022-08-07T04:20:31.598Z,32.07
2022-08-07T04:21:48.002Z,32.12
2022-08-07T04:23:19.382Z,32.14
2022-08-07T04:24:34.273Z,32.15
2022-08-07T04:25:51.419Z,32.31
2022-08-07T04:27:04.560Z,32.45
2022-08-07T04:28:14.076Z,32.45
2022-08-07T04:29:22.502Z,32.64
2022-08-07T04:30:43.380Z,32.82
2022-08-07T04:32:11.637Z,32.86
2022-08-07T04:33:20.588Z,32.96
2022-08-07T04:34:33.245Z,32.77
2022-08-07T04:35:54.017Z,32.90
2022-08-07T04:37:20.137Z,32.70
2022-08-07T04:38:29.925Z,32.86
2022-08-07T04:39:49.769Z,32.87
2022-08-07T04:40:59.861Z,32.97
2022-08-07T04:42:32.968Z,32.91
2022-08-07T04:44:11.920Z,33.21
2022-08-07T04:45:57.798Z,33.31
2022-08-07T04:47:09.109Z,33.32
2022-08-07T04:48:56.092Z,33.26
2022-08-07T04:50:30.012Z,33.19
2022-08-07T04:52:13.800Z,33.28
2022-08-07T04:54:01.048Z,33.28
2022-08-07T04:58:23.768Z,33.45
2022-08-07T04:58:24.302Z,33.24
2022-08-07T04:59:18.549Z,33.68
2022-08-07T05:00:49.896Z,33.81
2022-08-07T05:02:30.687Z,33.87
2022-08-07T05:04:06.440Z,33.94
2022-08-07T05:05:53.206Z,33.83
2022-08-07T05:07:19.659Z,33.80
2022-08-07T05:09:01.469Z,34.06
2022-08-07T05:10:32.443Z,34.54
2022-08-07T05:11:57.407Z,34.61
2022-08-07T05:14:54.447Z,34.67
2022-08-07T05:15:23.270Z,34.37
2022-08-07T05:16:43.968Z,34.35
2022-08-07T05:18:08.869Z,34.54
2022-08-07T05:19:25.795Z,34.55
2022-08-07T05:20:58.708Z,34.69
2022-08-07T05:22:11.579Z,34.88
2022-08-07T05:23:32.305Z,34.99
2022-08-07T05:24:47.627Z,35.07
2022-08-07T05:26:13.328Z,35.32
2022-08-07T05:28:15.980Z,35.43
2022-08-07T05:29:04.383Z,35.22
2022-08-07T05:30:16.267Z,35.35
2022-08-07T05:31:47.522Z,35.40
2022-08-07T05:33:06.991Z,35.54
2022-08-07T05:34:18.723Z,35.55
2022-08-07T05:35:33.181Z,35.71
2022-08-07T05:36:49.202Z,35.81
2022-08-07T05:38:09.928Z,35.82
2022-08-07T05:40:06.664Z,35.69
2022-08-07T05:40:52.451Z,35.70
2022-08-07T05:42:06.388Z,35.67
2022-08-07T05:43:49.817Z,35.83
2022-08-07T05:45:14.632Z,35.83
2022-08-07T05:46:26.545Z,35.71
2022-08-07T05:48:02.597Z,35.64
2022-08-07T05:49:12.528Z,35.59
2022-08-07T05:50:24.010Z,35.54
2022-08-07T05:51:33.437Z,35.56
2022-08-07T05:52:51.959Z,35.47
2022-08-07T05:54:14.069Z,35.46
2022-08-07T05:56:03.018Z,35.54
2022-08-07T05:57:04.162Z,35.69
2022-08-07T05:58:13.788Z,36.02
2022-08-07T05:59:23.914Z,36.29
2022-08-07T06:00:37.324Z,36.30
2022-08-07T06:01:50.310Z,36.51
2022-08-07T06:02:58.705Z,36.43
2022-08-07T06:04:11.636Z,36.37
2022-08-07T06:05:32.950Z,36.41
2022-08-07T06:06:56.671Z,36.68
2022-08-07T06:08:30.421Z,36.94
2022-08-07T06:10:03.741Z,37.11
2022-08-07T06:11:08.998Z,37.33
2022-08-07T06:12:31.789Z,37.52
2022-08-07T06:14:11.522Z,37.49
2022-08-07T06:15:15.188Z,37.58
2022-08-07T06:16:25.566Z,37.49
2022-08-07T06:17:41.327Z,37.52
2022-08-07T06:19:03.925Z,37.51
2022-08-07T06:20:31.662Z,37.50
2022-08-07T06:22:15.599Z,37.43
2022-08-07T06:23:46.003Z,37.53
2022-08-07T06:24:58.094Z,37.55
2022-08-07T06:26:17.961Z,37.60
2022-08-07T06:27:44.071Z,37.74
2022-08-07T06:28:56.334Z,37.94
2022-08-07T06:30:04.965Z,38.07
2022-08-07T06:31:15.148Z,38.17
2022-08-07T06:32:25.344Z,38.35
2022-08-07T06:33:38.062Z,38.56
2022-08-07T06:34:48.507Z,38.79
2022-08-07T06:36:12.427Z,38.68
2022-08-07T06:37:43.840Z,38.85
2022-08-07T06:40:13.563Z,39.03
2022-08-07T06:40:32.369Z,39.16
2022-08-07T06:42:14.380Z,38.87
2022-08-07T06:44:01.407Z,39.18
2022-08-07T06:45:21.049Z,39.42
2022-08-07T06:46:35.943Z,39.44
2022-08-07T06:47:59.077Z,39.40
2022-08-07T06:49:15.167Z,39.68
2022-08-07T06:50:23.933Z,40.26
2022-08-07T06:51:33.579Z,40.60
2022-08-07T06:52:52.933Z,40.35
2022-08-07T06:55:27.948Z,40.03
2022-08-07T06:55:53.521Z,39.81
2022-08-07T06:57:03.868Z,39.61
2022-08-07T06:58:16.717Z,39.78
2022-08-07T07:00:13.246Z,40.03
2022-08-07T07:01:14.158Z,40.38
2022-08-07T07:02:48.453Z,40.57
2022-08-07T07:03:55.103Z,40.67
2022-08-07T07:05:12.749Z,40.77
2022-08-07T07:06:26.142Z,40.82
2022-08-07T07:07:59.243Z,41.02
2022-08-07T07:09:24.172Z,41.22
2022-08-07T07:10:47.247Z,41.38
2022-08-07T07:12:15.589Z,41.35
2022-08-07T07:13:55.325Z,41.68
2022-08-07T07:15:03.645Z,41.44
2022-08-07T07:16:18.080Z,41.45
2022-08-07T07:17:39.048Z,41.68
2022-08-07T07:18:59.831Z,41.80
2022-08-07T07:20:22.765Z,41.96
2022-08-07T07:22:04.219Z,42.11
2022-08-07T07:24:06.490Z,41.94
2022-08-07T07:24:34.709Z,41.90
2022-08-07T07:26:31.416Z,41.73
2022-08-07T07:27:15.756Z,42.01
2022-08-07T07:29:56.017Z,42.24
2022-08-07T07:30:32.457Z,42.64
2022-08-07T07:31:53.745Z,42.55
2022-08-07T07:33:03.594Z,42.36
2022-08-07T07:34:15.563Z,42.39
2022-08-07T07:35:25.464Z,42.33
2022-08-07T07:36:43.485Z,42.36
2022-08-07T07:37:59.689Z,42.50
2022-08-07T07:39:13.080Z,42.43
2022-08-07T07:40:26.235Z,42.38
2022-08-07T07:42:02.316Z,42.50
2022-08-07T07:43:15.508Z,42.48
2022-08-07T07:44:30.665Z,42.47
2022-08-07T07:46:38.296Z,42.89
2022-08-07T07:47:22.741Z,43.07
2022-08-07T07:48:35.991Z,43.27
2022-08-07T07:50:36.533Z,43.47
2022-08-07T07:51:18.488Z,43.54
2022-08-07T07:52:28.570Z,43.48
2022-08-07T07:53:51.661Z,43.75
2022-08-07T07:55:03.545Z,44.10
2022-08-07T07:56:13.322Z,44.35
2022-08-07T07:57:43.822Z,44.57
2022-08-07T07:58:58.090Z,44.79
2022-08-07T08:00:07.263Z,44.51
2022-08-07T08:02:01.571Z,44.46
2022-08-07T08:03:01.207Z,44.47
2022-08-07T08:04:15.336Z,44.38
2022-08-07T08:05:30.277Z,44.37
2022-08-07T08:06:56.432Z,44.59
2022-08-07T08:08:32.413Z,44.50
2022-08-07T08:09:52.032Z,44.47
2022-08-07T08:11:16.391Z,44.86
2022-08-07T08:12:58.984Z,44.75
2022-08-07T08:14:12.605Z,44.62
2022-08-07T08:15:23.323Z,44.57
2022-08-07T08:16:39.839Z,44.53
2022-08-07T08:17:57.846Z,44.61
2022-08-07T08:19:29.601Z,44.72
2022-08-07T08:20:43.497Z,44.78
2022-08-07T08:22:13.173Z,44.73
2022-08-07T08:23:47.196Z,44.40
2022-08-07T08:25:24.612Z,44.21
2022-08-07T08:27:09.259Z,44.27
2022-08-07T08:28:37.849Z,44.16
2022-08-07T08:29:59.592Z,44.10
2022-08-07T08:31:22.755Z,44.36
2022-08-07T08:32:51.517Z,44.37
2022-08-07T08:34:02.534Z,44.75
2022-08-07T08:35:15.325Z,44.88
2022-08-07T08:36:33.825Z,44.52
2022-08-07T08:38:01.039Z,44.43
2022-08-07T08:39:10.086Z,44.40
2022-08-07T08:40:32.183Z,44.23
2022-08-07T08:41:57.804Z,44.33
2022-08-07T08:43:42.099Z,44.36
2022-08-07T08:45:13.404Z,44.55
2022-08-07T08:46:36.473Z,44.72
2022-08-07T08:48:28.395Z,44.75
2022-08-07T08:50:14.111Z,44.68
2022-08-07T08:51:49.717Z,44.44
2022-08-07T08:53:32.794Z,44.50
2022-08-07T08:55:04.622Z,44.71
2022-08-07T08:56:18.572Z,44.75
2022-08-07T08:57:56.477Z,44.96
2022-08-07T08:59:23.333Z,44.90
2022-08-07T09:00:34.763Z,44.96
2022-08-07T09:01:59.470Z,45.66
2022-08-07T09:03:18.396Z,46.22
2022-08-07T09:04:57.956Z,46.56
2022-08-07T09:06:13.753Z,46.98
2022-08-07T09:07:46.372Z,47.04
2022-08-07T09:09:23.812Z,47.20
2022-08-07T09:11:03.298Z,47.12
2022-08-07T09:12:53.012Z,47.19
2022-08-07T09:14:21.109Z,47.41
2022-08-07T09:16:22.154Z,47.34
2022-08-07T09:18:13.095Z,47.62
2022-08-07T09:19:51.798Z,47.93
2022-08-07T09:21:58.277Z,47.75
2022-08-07T09:24:31.058Z,48.09
2022-08-07T09:24:59.328Z,48.35
2022-08-07T09:26:37.754Z,48.08
2022-08-07T09:29:22.341Z,47.95
2022-08-07T09:30:04.599Z,48.18
2022-08-07T09:31:38.664Z,48.59
2022-08-07T09:32:54.075Z,48.78
2022-08-07T09:34:09.823Z,48.77
2022-08-07T09:36:09.529Z,48.52
2022-08-07T09:37:47.819Z,48.67
2022-08-07T09:39:11.419Z,48.84
2022-08-07T09:40:37.629Z,48.69
2022-08-07T09:41:58.653Z,48.62
2022-08-07T09:43:20.332Z,48.56
2022-08-07T09:47:25.421Z,48.28
2022-08-07T09:47:55.665Z,48.55
2022-08-07T09:50:02.655Z,48.41
2022-08-07T09:51:03.456Z,48.48
2022-08-07T09:52:38.282Z,48.38
2022-08-07T09:53:49.001Z,48.56
2022-08-07T09:55:17.081Z,48.83
2022-08-07T09:57:18.523Z,48.87
2022-08-07T09:58:52.205Z,48.76
2022-08-07T10:00:24.381Z,48.92
2022-08-07T10:02:04.869Z,48.90
2022-08-07T10:04:06.762Z,49.21
2022-08-07T10:05:13.766Z,49.08
2022-08-07T10:06:54.036Z,48.83
2022-08-07T10:08:29.445Z,49.04
2022-08-07T10:09:58.846Z,49.21
2022-08-07T10:12:03.365Z,49.32
2022-08-07T10:12:52.879Z,49.88
2022-08-07T10:14:40.704Z,50.19
2022-08-07T10:16:25.345Z,50.65
2022-08-07T10:18:01.777Z,51.75
2022-08-07T10:19:45.406Z,51.62
2022-08-07T10:21:20.031Z,51.32
2022-08-07T10:22:52.837Z,52.03
2022-08-07T10:24:10.160Z,51.99
2022-08-07T10:25:43.638Z,51.76
2022-08-07T10:27:12.852Z,51.90
2022-08-07T10:28:52.989Z,51.86
2022-08-07T10:30:39.856Z,52.11
2022-08-07T10:32:36.438Z,52.85
2022-08-07T10:34:06.569Z,53.07
2022-08-07T10:35:56.397Z,52.71
2022-08-07T10:38:00.132Z,52.92
2022-08-07T10:39:13.457Z,52.58
2022-08-07T10:40:54.504Z,52.37
2022-08-07T10:42:41.453Z,51.95
2022-08-07T10:44:07.649Z,51.83
2022-08-07T10:45:44.921Z,51.74
2022-08-07T10:47:52.744Z,51.88
2022-08-07T10:49:24.584Z,51.82
2022-08-07T10:50:54.778Z,51.96
2022-08-07T10:52:13.273Z,51.96
2022-08-07T10:53:44.450Z,51.86
2022-08-07T10:55:07.953Z,52.04
2022-08-07T10:56:54.199Z,51.93
2022-08-07T10:58:12.801Z,51.99
2022-08-07T10:59:47.572Z,51.99
2022-08-07T11:01:11.633Z,52.07
2022-08-07T11:02:35.218Z,52.35
2022-08-07T11:04:17.038Z,52.27
2022-08-07T11:06:05.775Z,52.20
2022-08-07T11:07:59.326Z,51.74
2022-08-07T11:10:10.159Z,51.86
2022-08-07T11:11:21.907Z,52.70
2022-08-07T11:13:02.313Z,54.01
2022-08-07T11:14:43.826Z,54.36
2022-08-07T11:15:44.699Z,54.00
2022-08-07T11:17:07.414Z,53.59
2022-08-07T11:18:44.182Z,53.49
2022-08-07T11:20:10.952Z,52.83
2022-08-07T11:21:42.875Z,52.41
2022-08-07T11:22:54.782Z,52.44
2022-08-07T11:24:22.656Z,52.12
2022-08-07T11:25:42.305Z,51.61
2022-08-07T11:27:20.685Z,52.01
2022-08-07T11:28:55.176Z,51.60
2022-08-07T11:30:17.732Z,51.13
2022-08-07T11:32:03.877Z,50.84
2022-08-07T11:33:54.207Z,50.92
2022-08-07T11:35:25.303Z,51.08
2022-08-07T11:37:00.344Z,51.43
2022-08-07T11:38:33.021Z,51.75
2022-08-07T11:40:05.433Z,51.80
2022-08-07T11:41:28.336Z,51.91
2022-08-07T11:42:49.172Z,51.75
2022-08-07T11:44:26.304Z,52.07
2022-08-07T11:45:58.778Z,52.24
2022-08-07T11:47:15.624Z,52.11
2022-08-07T11:49:04.163Z,52.11
2022-08-07T11:50:32.646Z,52.58
2022-08-07T11:51:55.560Z,53.24
2022-08-07T11:54:01.703Z,53.16
2022-08-07T11:56:09.494Z,52.99
2022-08-07T11:57:17.504Z,52.96
2022-08-07T11:59:03.246Z,53.15
2022-08-07T12:01:02.560Z,53.42
2022-08-07T12:02:53.664Z,54.35
2022-08-07T12:04:33.122Z,55.03
2022-08-07T12:06:37.878Z,54.75
2022-08-07T12:08:25.815Z,54.96
2022-08-07T12:10:05.667Z,55.54
2022-08-07T12:11:23.986Z,55.18
2022-08-07T12:12:54.544Z,54.76
2022-08-07T12:14:29.524Z,54.64
2022-08-07T12:16:05.695Z,55.02
2022-08-07T12:17:19.834Z,55.16
2022-08-07T12:19:02.803Z,55.03
2022-08-07T12:20:30.834Z,55.34
2022-08-07T12:22:38.781Z,55.66
2022-08-07T12:24:07.449Z,56.04
2022-08-07T12:26:02.853Z,56.18
2022-08-07T12:27:27.882Z,55.93
2022-08-07T12:29:03.715Z,55.75
2022-08-07T12:30:12.865Z,55.57
2022-08-07T12:32:04.197Z,55.46
2022-08-07T12:33:28.110Z,55.47
2022-08-07T12:34:49.388Z,55.57
2022-08-07T12:36:04.716Z,56.20
2022-08-07T12:37:28.589Z,56.51
2022-08-07T12:38:57.665Z,56.71
2022-08-07T12:40:19.111Z,57.08
2022-08-07T12:41:49.471Z,57.69
2022-08-07T12:43:02.996Z,57.83
2022-08-07T12:44:18.467Z,57.61
2022-08-07T12:45:52.328Z,57.65
2022-08-07T12:47:06.314Z,57.55
2022-08-07T12:48:28.237Z,57.59
2022-08-07T12:50:34.072Z,57.35
2022-08-07T12:52:12.123Z,56.94
2022-08-07T12:54:03.155Z,56.65
2022-08-07T12:56:02.096Z,56.59
2022-08-07T12:57:12.367Z,56.62
2022-08-07T12:58:35.440Z,56.30
2022-08-07T12:59:54.736Z,55.96
2022-08-07T13:01:32.193Z,55.69
2022-08-07T13:03:07.285Z,55.42
2022-08-07T13:05:01.049Z,55.29
2022-08-07T13:06:27.829Z,55.30
2022-08-07T13:08:14.159Z,55.52
2022-08-07T13:10:20.453Z,55.82
2022-08-07T13:11:20.004Z,55.65
2022-08-07T13:12:34.888Z,55.73
2022-08-07T13:13:49.499Z,55.26
2022-08-07T13:15:23.498Z,55.24
2022-08-07T13:17:18.189Z,54.89
2022-08-07T13:19:03.698Z,54.27
2022-08-07T13:20:14.764Z,54.05
2022-08-07T13:22:12.627Z,53.92
2022-08-07T13:24:03.747Z,53.78
2022-08-07T13:25:36.412Z,53.64
2022-08-07T13:26:48.397Z,53.36
2022-08-07T13:28:14.012Z,53.38
2022-08-07T13:29:34.892Z,53.41
2022-08-07T13:30:53.202Z,53.28
2022-08-07T13:32:35.065Z,53.13
2022-08-07T13:34:34.251Z,53.05
2022-08-07T13:35:59.581Z,53.18
2022-08-07T13:37:40.253Z,53.58
2022-08-07T13:39:13.179Z,53.26
2022-08-07T13:40:42.121Z,52.62
2022-08-07T13:41:54.702Z,52.14
2022-08-07T13:43:11.817Z,51.79
2022-08-07T13:44:34.565Z,51.49
2022-08-07T13:46:12.455Z,50.98
2022-08-07T13:47:21.765Z,50.67
2022-08-07T13:48:38.718Z,50.35
2022-08-07T13:50:32.911Z,50.14
2022-08-07T13:51:28.477Z,49.95
2022-08-07T13:52:47.031Z,49.56
2022-08-07T13:54:00.781Z,49.15
2022-08-07T13:55:25.555Z,48.93
2022-08-07T13:56:40.924Z,48.69
2022-08-07T13:58:31.500Z,48.78
2022-08-07T13:59:46.264Z,49.11
2022-08-07T14:01:09.359Z,49.25
2022-08-07T14:02:33.294Z,49.41
2022-08-07T14:04:08.132Z,49.21
2022-08-07T14:05:17.547Z,49.18
2022-08-07T14:06:42.230Z,48.64
2022-08-07T14:07:59.462Z,47.97
2022-08-07T14:10:00.489Z,47.32
2022-08-07T14:10:43.520Z,46.49
2022-08-07T14:12:07.245Z,45.74
2022-08-07T14:13:18.187Z,44.79
2022-08-07T14:14:33.095Z,44.44
2022-08-07T14:15:50.641Z,44.06
2022-08-07T14:17:32.366Z,43.14
2022-08-07T14:18:42.337Z,42.50
2022-08-07T14:20:42.729Z,42.16
2022-08-07T14:22:01.187Z,41.87
2022-08-07T14:24:00.109Z,41.35
2022-08-07T14:25:03.320Z,40.79
2022-08-07T14:26:30.364Z,40.70
2022-08-07T14:28:10.272Z,39.92
2022-08-07T14:30:07.652Z,38.99
2022-08-07T14:30:54.993Z,38.96
2022-08-07T14:32:07.101Z,38.51
2022-08-07T14:33:17.179Z,38.03
2022-08-07T14:34:32.878Z,37.68
2022-08-07T14:35:44.559Z,37.36
2022-08-07T14:36:56.727Z,36.58
2022-08-07T14:38:06.024Z,36.19
2022-08-07T14:40:17.344Z,35.42
2022-08-07T14:40:43.269Z,35.16
2022-08-07T14:42:19.613Z,35.39
2022-08-07T14:43:58.219Z,35.64
2022-08-07T14:45:21.855Z,35.51
2022-08-07T14:46:32.455Z,35.17
2022-08-07T14:47:42.301Z,35.06
2022-08-07T14:48:54.130Z,34.85
2022-08-07T14:50:05.314Z,34.77
2022-08-07T14:51:17.220Z,34.59
2022-08-07T14:52:27.979Z,34.14
2022-08-07T14:54:05.948Z,33.86
2022-08-07T14:55:10.471Z,33.38
2022-08-07T14:56:29.534Z,32.96
2022-08-07T14:57:55.115Z,31.91
2022-08-07T14:59:13.812Z,32.26
2022-08-07T15:00:36.533Z,32.00
2022-08-07T15:04:53.152Z,31.77
2022-08-07T15:07:47.374Z,31.38
2022-08-07T15:09:58.332Z,31.12
2022-08-07T15:10:32.980Z,30.82
2022-08-07T15:12:01.481Z,30.81
2022-08-07T15:13:25.494Z,30.67
2022-08-07T15:14:58.243Z,30.32
2022-08-07T15:16:10.835Z,30.07
2022-08-07T15:17:22.314Z,29.78
2022-08-07T15:18:35.978Z,29.16
2022-08-07T15:21:50.765Z,28.51
2022-08-07T15:23:20.094Z,27.99
2022-08-07T15:25:14.409Z,27.54
2022-08-07T15:28:32.367Z,27.17
2022-08-07T15:32:11.722Z,26.25
2022-08-07T15:33:21.263Z,25.93
2022-08-07T15:38:17.903Z,23.95
2022-08-07T15:39:26.935Z,23.42
2022-08-07T15:41:22.829Z,22.75
2022-08-07T15:42:57.024Z,22.80
2022-08-07T15:44:13.547Z,22.36
2022-08-07T15:45:57.602Z,22.47
2022-08-07T15:47:09.103Z,22.04
2022-08-07T15:48:34.296Z,21.42
2022-08-07T15:50:04.171Z,21.29
2022-08-07T15:51:11.933Z,20.72
2022-08-07T15:52:30.577Z,20.59
2022-08-07T15:53:52.838Z,19.97
2022-08-07T15:55:11.597Z,20.16
2022-08-07T15:56:20.721Z,20.20
2022-08-07T15:57:39.673Z,19.82
2022-08-07T15:59:01.209Z,19.69
2022-08-07T16:00:09.984Z,19.80
2022-08-07T16:02:01.906Z,19.81
2022-08-07T16:03:47.158Z,19.10
2022-08-07T16:05:02.149Z,18.49
2022-08-07T16:06:10.627Z,18.71
2022-08-07T16:08:28.587Z,18.76
2022-08-07T16:08:47.366Z,18.56
2022-08-07T16:10:04.849Z,18.19
2022-08-07T16:11:44.794Z,17.84
2022-08-07T16:13:00.944Z,17.67
2022-08-07T16:14:22.939Z,17.93
2022-08-07T16:15:55.665Z,17.61
2022-08-07T16:18:01.274Z,17.84
2022-08-07T16:18:51.705Z,18.36
2022-08-07T16:20:33.881Z,18.27
2022-08-07T16:22:31.496Z,18.48
2022-08-07T16:23:55.099Z,18.42
2022-08-07T16:25:55.425Z,18.24
2022-08-07T16:27:17.992Z,18.11
2022-08-07T16:30:06.516Z,18.19
2022-08-07T16:30:30.171Z,18.22
2022-08-07T16:31:58.530Z,17.96
2022-08-07T16:34:01.508Z,17.84
2022-08-07T16:34:50.573Z,17.45
2022-08-07T16:36:31.163Z,17.63
2022-08-07T16:38:18.631Z,17.78
2022-08-07T16:39:55.620Z,17.62
2022-08-07T16:41:22.383Z,17.52
2022-08-07T16:42:37.520Z,17.69
2022-08-07T16:44:46.405Z,17.80
2022-08-07T16:46:40.486Z,17.50
2022-08-07T16:48:06.771Z,17.06
2022-08-07T16:50:27.247Z,17.08
2022-08-07T16:51:54.199Z,17.39
2022-08-07T16:53:55.578Z,16.93
2022-08-07T16:54:55.104Z,17.07
2022-08-07T16:56:22.442Z,16.87
2022-08-07T16:58:04.312Z,16.58
2022-08-07T16:59:46.088Z,16.48
2022-08-07T17:01:20.987Z,16.72
2022-08-07T17:03:05.096Z,16.80
2022-08-07T17:04:57.839Z,17.04
2022-08-07T17:06:30.682Z,17.65
2022-08-07T17:08:02.027Z,17.94
2022-08-07T17:10:05.455Z,17.97
2022-08-07T17:10:54.954Z,18.06
2022-08-07T17:12:35.815Z,18.40
2022-08-07T17:14:19.017Z,18.47
2022-08-07T17:15:43.701Z,18.42
2022-08-07T17:16:58.928Z,18.57
2022-08-07T17:18:46.026Z,18.51
2022-08-07T17:20:03.497Z,18.19
2022-08-07T17:22:05.429Z,18.25
2022-08-07T17:23:33.121Z,18.05
2022-08-07T17:24:56.363Z,17.72
2022-08-07T17:26:24.249Z,17.97
2022-08-07T17:27:57.510Z,18.24
2022-08-07T17:30:15.476Z,18.38
2022-08-07T17:31:36.366Z,18.37
2022-08-07T17:34:08.891Z,17.57
2022-08-07T17:35:33.035Z,18.03
2022-08-07T17:36:26.027Z,18.38
2022-08-07T17:38:06.510Z,18.47
2022-08-07T17:39:58.402Z,18.16
2022-08-07T17:42:04.761Z,17.89
2022-08-07T17:42:58.394Z,17.36
2022-08-07T17:44:50.162Z,16.83
2022-08-07T17:46:15.417Z,16.91
2022-08-07T17:47:42.282Z,17.02
2022-08-07T17:49:23.000Z,16.83
2022-08-07T17:50:42.568Z,17.46
2022-08-07T17:52:01.470Z,17.27
2022-08-07T17:53:52.598Z,16.61
2022-08-07T17:54:55.413Z,16.43
2022-08-07T17:56:15.409Z,16.65
2022-08-07T17:57:58.955Z,16.66
2022-08-07T17:59:36.026Z,16.57
2022-08-07T18:00:48.395Z,15.86
2022-08-07T18:02:23.398Z,15.72
2022-08-07T18:04:04.141Z,15.49
2022-08-07T18:05:21.547Z,15.71
2022-08-07T18:06:38.898Z,15.51
2022-08-07T18:07:48.535Z,14.89
2022-08-07T18:09:05.712Z,14.51
2022-08-07T18:10:32.514Z,14.30
2022-08-07T18:12:28.009Z,13.97
2022-08-07T18:13:50.269Z,13.97
2022-08-07T18:15:21.966Z,13.94
2022-08-07T18:16:58.216Z,13.44
2022-08-07T18:18:46.614Z,12.59
2022-08-07T18:21:07.069Z,12.41
2022-08-07T18:21:40.232Z,12.28
2022-08-07T18:22:56.705Z,12.08
2022-08-07T18:24:33.655Z,11.39
2022-08-07T18:25:44.131Z,10.64
2022-08-07T18:27:38.469Z,10.28
2022-08-07T18:30:06.901Z,10.45
2022-08-07T18:31:08.309Z,9.97
2022-08-07T18:32:46.180Z,10.09
2022-08-07T18:34:34.744Z,9.68
2022-08-07T18:36:02.611Z,9.80
2022-08-07T18:38:57.383Z,9.43
2022-08-07T18:40:07.484Z,9.42